createdAt,value
2023-05-12T00:00:48.729Z,11.75
2023-05-12T00:03:15.183Z,12.38
2023-05-12T00:05:41.488Z,12.15
2023-05-12T00:08:07.706Z,13.27
2023-05-12T00:10:35.648Z,12.70
2023-05-12T00:13:02.210Z,12.38
2023-05-12T00:15:28.460Z,14.57
2023-05-12T00:17:54.739Z,15.23
2023-05-12T00:20:21.345Z,15.48
2023-05-12T00:22:47.703Z,15.35
2023-05-12T00:25:13.984Z,14.95
2023-05-12T00:27:40.241Z,14.15
2023-05-12T00:30:06.866Z,16.25
2023-05-12T00:32:33.153Z,16.05
2023-05-12T00:34:59.809Z,15.77
2023-05-12T00:37:26.051Z,17.27
2023-05-12T00:39:52.242Z,18.38
2023-05-12T00:42:18.438Z,17.65
2023-05-12T00:44:44.680Z,18.63
2023-05-12T00:47:10.954Z,16.67
2023-05-12T00:49:37.389Z,16.98
2023-05-12T00:52:03.826Z,18.85
2023-05-12T00:54:30.239Z,17.65
2023-05-12T00:56:57.347Z,18.05
2023-05-12T00:59:23.576Z,17.45
2023-05-12T01:01:50.301Z,16.20
2023-05-12T01:04:16.687Z,15.95
2023-05-12T01:06:53.783Z,15.48
2023-05-12T01:09:20.538Z,15.75
2023-05-12T01:11:46.737Z,14.20
2023-05-12T01:14:12.942Z,13.68
2023-05-12T01:16:51.269Z,14.98
2023-05-12T01:19:34.342Z,14.32
2023-05-12T01:22:00.792Z,14.43
2023-05-12T01:24:28.774Z,13.82
2023-05-12T01:26:54.988Z,13.95
2023-05-12T01:29:22.050Z,13.80
2023-05-12T01:31:49.199Z,13.68
2023-05-12T01:34:16.254Z,14.18
2023-05-12T01:36:42.537Z,14.70
2023-05-12T01:39:08.763Z,15.38
2023-05-12T01:41:35.004Z,15.98
2023-05-12T01:44:01.230Z,14.48
2023-05-12T01:46:27.463Z,14.77
2023-05-12T01:48:53.760Z,14.25
2023-05-12T01:51:19.957Z,13.85
2023-05-12T01:53:46.169Z,14.43
2023-05-12T01:56:12.606Z,13.38
2023-05-12T01:58:38.920Z,14.18
2023-05-12T02:01:05.195Z,13.93
2023-05-12T02:03:31.519Z,13.88
2023-05-12T02:05:57.835Z,12.32
2023-05-12T02:08:24.090Z,13.55
2023-05-12T02:10:51.062Z,13.25
2023-05-12T02:13:17.281Z,12.25
2023-05-12T02:15:43.516Z,12.63
2023-05-12T02:18:09.784Z,12.45
2023-05-12T02:20:36.150Z,12.70
2023-05-12T02:23:02.965Z,10.30
2023-05-12T02:25:29.180Z,12.77
2023-05-12T02:27:55.380Z,11.52
2023-05-12T02:30:21.837Z,11.95
2023-05-12T02:32:48.280Z,11.57
2023-05-12T02:35:14.506Z,12.85
2023-05-12T02:37:40.723Z,11.90
2023-05-12T02:40:07.810Z,12.57
2023-05-12T02:42:35.511Z,12.10
2023-05-12T02:45:02.829Z,13.07
2023-05-12T02:47:31.372Z,13.63
2023-05-12T02:49:57.617Z,13.07
2023-05-12T02:52:24.009Z,12.68
2023-05-12T02:54:50.212Z,13.30
2023-05-12T02:57:16.399Z,13.48
2023-05-12T02:59:42.592Z,13.07
2023-05-12T03:02:08.968Z,12.95
2023-05-12T03:04:35.243Z,12.32
2023-05-12T03:07:01.624Z,11.98
2023-05-12T03:09:27.920Z,13.18
2023-05-12T03:11:54.129Z,13.07
2023-05-12T03:14:20.498Z,13.85
2023-05-12T03:16:46.719Z,12.52
2023-05-12T03:19:12.969Z,12.85
2023-05-12T03:21:39.257Z,12.32
2023-05-12T03:24:05.706Z,12.45
2023-05-12T03:26:31.928Z,12.45
2023-05-12T03:28:58.134Z,12.20
2023-05-12T03:31:24.335Z,12.57
2023-05-12T03:33:50.568Z,11.52
2023-05-12T03:36:16.822Z,12.00
2023-05-12T03:38:43.023Z,12.32
2023-05-12T03:41:09.305Z,12.00
2023-05-12T03:43:35.867Z,11.38
2023-05-12T03:46:02.187Z,11.27
2023-05-12T03:48:28.852Z,11.50
2023-05-12T03:50:55.059Z,11.40
2023-05-12T03:53:21.711Z,10.82
2023-05-12T03:55:48.249Z,10.60
2023-05-12T03:58:14.500Z,10.27
2023-05-12T04:00:40.782Z,9.48
2023-05-12T04:03:07.315Z,9.13
2023-05-12T04:05:33.678Z,9.48
2023-05-12T04:07:59.893Z,8.50
2023-05-12T04:10:26.110Z,8.30
2023-05-12T04:12:52.367Z,8.18
2023-05-12T04:15:18.928Z,7.18
2023-05-12T04:17:45.170Z,6.93
2023-05-12T04:20:11.776Z,5.88
2023-05-12T04:22:38.067Z,6.22
2023-05-12T04:25:04.416Z,6.03
2023-05-12T04:27:30.629Z,5.78
2023-05-12T04:29:56.850Z,5.95
2023-05-12T04:32:23.082Z,4.85
2023-05-12T04:34:49.426Z,4.38
2023-05-12T04:37:15.625Z,3.80
2023-05-12T04:39:41.831Z,4.10
2023-05-12T04:42:08.089Z,3.97
2023-05-12T04:44:34.432Z,3.75
2023-05-12T04:47:00.741Z,3.95
2023-05-12T04:49:26.941Z,4.20
2023-05-12T04:51:53.277Z,4.30
2023-05-12T04:54:19.545Z,3.53
2023-05-12T04:56:45.846Z,3.72
2023-05-12T04:59:12.057Z,3.50
2023-05-12T05:01:38.370Z,3.47
2023-05-12T05:04:04.681Z,3.90
2023-05-12T05:06:31.582Z,3.53
2023-05-12T05:08:57.756Z,3.80
2023-05-12T05:11:23.955Z,4.10
2023-05-12T05:13:50.219Z,3.25
2023-05-12T05:16:16.545Z,3.72
2023-05-12T05:18:46.253Z,3.70
2023-05-12T05:21:14.155Z,3.28
2023-05-12T05:23:40.887Z,4.03
2023-05-12T05:26:07.344Z,3.50
2023-05-12T05:28:33.622Z,3.65
2023-05-12T05:30:59.947Z,3.50
2023-05-12T05:33:26.221Z,3.58
2023-05-12T05:35:52.738Z,3.67
2023-05-12T05:38:19.084Z,3.40
2023-05-12T05:40:52.155Z,3.47
2023-05-12T05:43:19.743Z,3.70
2023-05-12T05:45:45.972Z,3.60
2023-05-12T05:48:12.624Z,3.50
2023-05-12T05:50:38.904Z,3.83
2023-05-12T05:53:05.131Z,3.50
2023-05-12T05:55:31.300Z,3.92
2023-05-12T05:57:57.573Z,4.05
2023-05-12T06:00:23.828Z,4.05
2023-05-12T06:02:50.190Z,3.80
2023-05-12T06:05:16.544Z,4.13
2023-05-12T06:07:43.115Z,4.10
2023-05-12T06:10:09.339Z,4.20
2023-05-12T06:12:35.565Z,4.50
2023-05-12T06:15:01.763Z,4.10
2023-05-12T06:17:28.006Z,4.38
2023-05-12T06:19:54.245Z,4.00
2023-05-12T06:22:20.494Z,4.20
2023-05-12T06:24:46.713Z,4.75
2023-05-12T06:27:12.959Z,4.40
2023-05-12T06:29:39.173Z,3.92
2023-05-12T06:32:05.757Z,4.30
2023-05-12T06:34:32.142Z,4.15
2023-05-12T06:36:58.463Z,4.47
2023-05-12T06:39:24.732Z,4.65
2023-05-12T06:41:50.978Z,4.25
2023-05-12T06:44:17.187Z,4.43
2023-05-12T06:46:43.460Z,4.38
2023-05-12T06:49:09.669Z,4.88
2023-05-12T06:51:36.630Z,5.10
2023-05-12T06:54:02.950Z,6.32
2023-05-12T06:56:29.605Z,4.10
2023-05-12T06:59:00.960Z,4.38
2023-05-12T07:01:27.850Z,4.25
2023-05-12T07:03:54.619Z,3.85
2023-05-12T07:06:21.299Z,4.45
2023-05-12T07:08:48.069Z,3.50
2023-05-12T07:11:19.832Z,3.90
2023-05-12T07:13:47.017Z,4.18
2023-05-12T07:16:13.862Z,4.30
2023-05-12T07:18:40.244Z,4.13
2023-05-12T07:21:06.799Z,3.90
2023-05-12T07:23:34.248Z,5.28
2023-05-12T07:26:02.246Z,5.18
2023-05-12T07:28:29.846Z,4.28
2023-05-12T07:30:56.108Z,4.50
2023-05-12T07:33:22.419Z,4.47
2023-05-12T07:35:48.980Z,4.10
2023-05-12T07:38:15.288Z,4.28
2023-05-12T07:40:41.490Z,3.75
2023-05-12T07:43:07.917Z,3.80
2023-05-12T07:45:34.112Z,3.85
2023-05-12T07:48:00.409Z,4.30
2023-05-12T07:50:26.697Z,4.47
2023-05-12T07:52:53.558Z,3.63
2023-05-12T07:55:21.260Z,3.60
2023-05-12T07:57:48.951Z,3.47
2023-05-12T08:00:15.707Z,3.80
2023-05-12T08:02:42.651Z,3.15
2023-05-12T08:05:12.511Z,3.67
2023-05-12T08:07:41.112Z,3.42
2023-05-12T08:10:07.781Z,3.63
2023-05-12T08:12:34.012Z,3.30
2023-05-12T08:15:00.225Z,3.30
2023-05-12T08:17:29.063Z,3.45
2023-05-12T08:19:55.698Z,3.00
2023-05-12T08:22:21.910Z,3.15
2023-05-12T08:24:48.200Z,2.70
2023-05-12T08:27:14.455Z,2.95
2023-05-12T08:29:40.761Z,2.55
2023-05-12T08:32:08.172Z,2.80
2023-05-12T08:34:34.455Z,2.40
2023-05-12T08:37:01.151Z,2.65
2023-05-12T08:39:30.818Z,3.08
2023-05-12T08:42:17.370Z,2.83
2023-05-12T08:44:43.809Z,2.75
2023-05-12T08:47:11.885Z,2.58
2023-05-12T08:49:39.965Z,2.60
2023-05-12T08:52:07.729Z,2.60
2023-05-12T08:54:42.452Z,2.53
2023-05-12T08:57:16.063Z,2.65
2023-05-12T08:59:43.914Z,2.60
2023-05-12T09:02:11.045Z,2.67
2023-05-12T09:04:38.141Z,2.70
2023-05-12T09:07:04.916Z,2.42
2023-05-12T09:09:32.650Z,2.50
2023-05-12T09:12:00.269Z,2.47
2023-05-12T09:14:27.385Z,2.15
2023-05-12T09:16:55.747Z,2.72
2023-05-12T09:19:22.084Z,2.20
2023-05-12T09:21:48.381Z,2.40
2023-05-12T09:24:14.803Z,2.60
2023-05-12T09:26:52.332Z,2.40
2023-05-12T09:29:30.670Z,2.65
2023-05-12T09:31:58.579Z,2.28
2023-05-12T09:34:28.699Z,2.53
2023-05-12T09:36:58.812Z,2.53
2023-05-12T09:39:25.592Z,2.60
2023-05-12T09:41:54.777Z,2.72
2023-05-12T09:44:21.368Z,2.47
2023-05-12T09:46:48.048Z,2.42
2023-05-12T09:49:21.133Z,2.38
2023-05-12T09:51:51.297Z,2.90
2023-05-12T09:54:39.501Z,2.55
2023-05-12T09:57:06.154Z,2.95
2023-05-12T09:59:33.795Z,2.97
2023-05-12T10:02:01.116Z,2.65
2023-05-12T10:04:28.367Z,2.80
2023-05-12T10:06:54.890Z,2.13
2023-05-12T10:09:21.152Z,2.97
2023-05-12T10:11:47.667Z,2.53
2023-05-12T10:14:14.229Z,2.67
2023-05-12T10:16:41.074Z,2.90
2023-05-12T10:19:08.606Z,4.00
2023-05-12T10:21:36.493Z,2.95
2023-05-12T10:24:03.644Z,2.95
2023-05-12T10:26:30.995Z,2.42
2023-05-12T10:28:58.060Z,2.70
2023-05-12T10:31:25.666Z,2.35
2023-05-12T10:34:01.776Z,2.50
2023-05-12T10:36:28.640Z,3.70
2023-05-12T10:38:55.302Z,2.55
2023-05-12T10:41:34.498Z,2.72
2023-05-12T10:44:00.789Z,2.47
2023-05-12T10:46:27.565Z,2.70
2023-05-12T10:49:06.640Z,3.08
2023-05-12T10:51:33.926Z,2.75
2023-05-12T10:54:07.582Z,2.85
2023-05-12T10:56:36.821Z,2.30
2023-05-12T10:59:35.672Z,2.40
2023-05-12T11:02:07.425Z,2.40
2023-05-12T11:04:37.574Z,3.10
2023-05-12T11:07:04.757Z,3.67
2023-05-12T11:09:34.835Z,3.05
2023-05-12T11:12:01.934Z,2.80
2023-05-12T11:14:29.043Z,2.35
2023-05-12T11:16:55.269Z,2.88
2023-05-12T11:19:21.714Z,2.70
2023-05-12T11:21:48.039Z,2.85
2023-05-12T11:24:16.472Z,2.70
2023-05-12T11:26:42.721Z,2.95
2023-05-12T11:29:08.920Z,2.58
2023-05-12T11:31:35.270Z,2.80
2023-05-12T11:34:11.965Z,2.78
2023-05-12T11:36:40.614Z,3.17
2023-05-12T11:39:07.069Z,2.88
2023-05-12T11:41:33.401Z,2.65
2023-05-12T11:43:59.623Z,3.22
2023-05-12T11:46:31.691Z,3.08
2023-05-12T11:48:58.805Z,3.10
2023-05-12T11:51:25.584Z,3.17
2023-05-12T11:53:52.735Z,3.20
2023-05-12T11:56:23.321Z,2.60
2023-05-12T11:58:56.276Z,2.90
2023-05-12T12:01:23.109Z,2.83
2023-05-12T12:03:50.664Z,2.95
2023-05-12T12:06:17.291Z,2.92
2023-05-12T12:08:50.842Z,2.63
2023-05-12T12:11:17.791Z,2.50
2023-05-12T12:13:56.866Z,2.97
2023-05-12T12:16:24.159Z,2.53
2023-05-12T12:18:50.610Z,2.70
2023-05-12T12:21:18.377Z,3.20
2023-05-12T12:23:51.403Z,2.85
2023-05-12T12:26:20.840Z,2.67
2023-05-12T12:28:47.658Z,2.72
2023-05-12T12:31:14.184Z,3.30
2023-05-12T12:33:40.580Z,2.90
2023-05-12T12:36:06.982Z,2.83
2023-05-12T12:38:33.235Z,2.80
2023-05-12T12:41:00.303Z,2.72
2023-05-12T12:43:26.998Z,2.75
2023-05-12T12:45:54.869Z,2.60
2023-05-12T12:48:21.505Z,3.15
2023-05-12T12:50:47.820Z,3.40
2023-05-12T12:53:13.997Z,2.72
2023-05-12T12:55:40.587Z,3.30
2023-05-12T12:58:06.781Z,3.10
2023-05-12T13:00:33.062Z,2.78
2023-05-12T13:02:59.623Z,2.40
2023-05-12T13:05:25.973Z,3.15
2023-05-12T13:07:52.592Z,5.15
2023-05-12T13:10:18.874Z,2.92
2023-05-12T13:12:45.169Z,4.13
2023-05-12T13:15:11.542Z,2.90
2023-05-12T13:17:37.885Z,4.45
2023-05-12T13:20:04.488Z,3.50
2023-05-12T13:22:30.743Z,3.42
2023-05-12T13:24:57.193Z,3.25
2023-05-12T13:27:23.455Z,3.10
2023-05-12T13:29:49.678Z,2.90
2023-05-12T13:32:16.180Z,2.63
2023-05-12T13:34:42.491Z,2.90
2023-05-12T13:37:08.794Z,2.85
2023-05-12T13:39:38.077Z,2.80
2023-05-12T13:42:04.522Z,2.60
2023-05-12T13:44:31.008Z,2.60
2023-05-12T13:46:57.481Z,3.15
2023-05-12T13:49:23.821Z,2.88
2023-05-12T13:51:50.127Z,2.78
2023-05-12T13:54:16.486Z,2.60
2023-05-12T13:56:42.847Z,3.28
2023-05-12T13:59:10.325Z,2.80
2023-05-12T14:01:36.583Z,2.60
2023-05-12T14:04:02.857Z,2.50
2023-05-12T14:06:29.230Z,2.50
2023-05-12T14:08:55.618Z,2.92
2023-05-12T14:11:22.101Z,2.53
2023-05-12T14:13:48.451Z,2.60
2023-05-12T14:16:14.868Z,2.72
2023-05-12T14:18:43.362Z,2.60
2023-05-12T14:21:10.093Z,2.67
2023-05-12T14:23:36.653Z,3.50
2023-05-12T14:26:04.880Z,3.00
2023-05-12T14:28:31.168Z,2.70
2023-05-12T14:30:57.408Z,2.90
2023-05-12T14:33:23.628Z,3.30
2023-05-12T14:35:59.294Z,3.17
2023-05-12T14:38:29.681Z,3.10
2023-05-12T14:40:55.889Z,3.50
2023-05-12T14:43:22.117Z,2.92
2023-05-12T14:45:54.128Z,2.85
2023-05-12T14:48:25.936Z,2.88
2023-05-12T14:50:53.018Z,3.42
2023-05-12T14:53:19.413Z,3.40
2023-05-12T14:55:46.872Z,3.40
2023-05-12T14:58:14.262Z,3.72
2023-05-12T15:00:40.489Z,3.22
2023-05-12T15:03:07.536Z,2.70
2023-05-12T15:05:52.566Z,2.90
2023-05-12T15:08:21.291Z,3.17
2023-05-12T15:10:47.682Z,3.10
2023-05-12T15:13:15.763Z,2.90
2023-05-12T15:15:41.973Z,3.22
2023-05-12T15:18:08.317Z,3.00
2023-05-12T15:20:34.664Z,2.90
2023-05-12T15:23:00.930Z,3.10
2023-05-12T15:25:27.284Z,3.03
2023-05-12T15:27:53.482Z,3.25
2023-05-12T15:30:19.780Z,3.13
2023-05-12T15:32:46.083Z,3.22
2023-05-12T15:35:12.865Z,2.80
2023-05-12T15:37:39.088Z,3.05
2023-05-12T15:40:05.582Z,3.35
2023-05-12T15:42:33.281Z,3.20
2023-05-12T15:44:59.796Z,3.10
2023-05-12T15:47:27.284Z,3.42
2023-05-12T15:49:53.575Z,2.97
2023-05-12T15:52:19.801Z,2.90
2023-05-12T15:54:46.585Z,2.60
2023-05-12T15:57:13.607Z,2.80
2023-05-12T15:59:39.822Z,2.75
2023-05-12T16:02:06.346Z,2.80
2023-05-12T16:04:32.661Z,2.42
2023-05-12T16:06:58.915Z,2.63
2023-05-12T16:09:25.234Z,3.30
2023-05-12T16:11:51.924Z,2.83
2023-05-12T16:14:18.656Z,2.72
2023-05-12T16:16:48.196Z,2.58
2023-05-12T16:19:15.335Z,3.05
2023-05-12T16:21:42.593Z,2.88
2023-05-12T16:24:09.327Z,3.05
2023-05-12T16:26:35.570Z,2.85
2023-05-12T16:29:01.824Z,2.60
2023-05-12T16:31:28.344Z,2.55
2023-05-12T16:33:54.581Z,2.60
2023-05-12T16:36:21.223Z,2.70
2023-05-12T16:38:47.414Z,2.88
2023-05-12T16:41:13.649Z,2.40
2023-05-12T16:43:39.859Z,2.55
2023-05-12T16:46:06.128Z,2.70
2023-05-12T16:48:36.113Z,2.78
2023-05-12T16:51:06.571Z,2.70
2023-05-12T16:53:33.091Z,2.87
2023-05-12T16:55:59.749Z,3.00
2023-05-12T16:58:27.690Z,3.25
2023-05-12T17:00:53.887Z,3.17
2023-05-12T17:03:20.271Z,3.10
2023-05-12T17:05:46.834Z,2.55
2023-05-12T17:08:15.748Z,2.88
2023-05-12T17:10:42.840Z,3.40
2023-05-12T17:13:09.332Z,3.13
2023-05-12T17:15:38.886Z,3.60
2023-05-12T17:18:05.576Z,3.33
2023-05-12T17:20:32.127Z,4.28
2023-05-12T17:22:58.337Z,3.90
2023-05-12T17:25:24.902Z,2.83
2023-05-12T17:27:51.201Z,3.60
2023-05-12T17:30:18.497Z,5.00
2023-05-12T17:32:44.792Z,4.80
2023-05-12T17:35:11.069Z,4.68
2023-05-12T17:37:38.150Z,7.28
2023-05-12T17:40:07.077Z,4.72
2023-05-12T17:42:34.941Z,5.50
2023-05-12T17:45:01.435Z,5.05
2023-05-12T17:47:27.992Z,4.60
2023-05-12T17:49:55.457Z,4.57
2023-05-12T17:52:22.117Z,4.40
2023-05-12T17:54:48.483Z,4.60
2023-05-12T17:57:15.345Z,4.35
2023-05-12T17:59:41.982Z,5.32
2023-05-12T18:02:08.511Z,5.10
2023-05-12T18:04:34.765Z,5.07
2023-05-12T18:07:00.998Z,4.45
2023-05-12T18:09:28.469Z,7.22
2023-05-12T18:11:54.732Z,7.90
2023-05-12T18:14:21.750Z,6.47
2023-05-12T18:16:48.601Z,6.07
2023-05-12T18:19:15.151Z,6.47
2023-05-12T18:21:41.485Z,6.70
2023-05-12T18:24:07.745Z,6.05
2023-05-12T18:26:33.962Z,6.78
2023-05-12T18:29:00.400Z,6.70
2023-05-12T18:31:26.796Z,6.93
2023-05-12T18:33:53.059Z,7.50
2023-05-12T18:36:19.729Z,7.25
2023-05-12T18:38:45.977Z,6.70
2023-05-12T18:41:12.567Z,6.75
2023-05-12T18:43:38.772Z,7.28
2023-05-12T18:46:05.851Z,7.13
2023-05-12T18:48:32.102Z,6.28
2023-05-12T18:50:58.434Z,7.10
2023-05-12T18:53:24.724Z,7.18
2023-05-12T18:55:51.525Z,6.47
2023-05-12T18:58:17.811Z,7.28
2023-05-12T19:00:44.487Z,7.45
2023-05-12T19:03:10.829Z,7.28
2023-05-12T19:05:37.145Z,7.50
2023-05-12T19:08:03.438Z,7.63
2023-05-12T19:10:29.719Z,8.55
2023-05-12T19:12:55.984Z,10.35
2023-05-12T19:15:22.421Z,9.00
2023-05-12T19:17:49.400Z,8.48
2023-05-12T19:20:15.628Z,7.60
2023-05-12T19:22:42.244Z,6.72
2023-05-12T19:25:09.305Z,7.15
2023-05-12T19:27:35.573Z,6.72
2023-05-12T19:30:02.279Z,6.07
2023-05-12T19:32:28.631Z,6.88
2023-05-12T19:34:55.839Z,6.15
2023-05-12T19:37:22.140Z,6.22
2023-05-12T19:39:48.475Z,7.70
2023-05-12T19:42:14.941Z,8.93
2023-05-12T19:44:41.147Z,7.65
2023-05-12T19:47:08.612Z,7.43
2023-05-12T19:49:35.384Z,7.63
2023-05-12T19:52:05.752Z,7.03
2023-05-12T19:54:32.016Z,7.15
2023-05-12T19:56:58.418Z,7.03
2023-05-12T19:59:24.721Z,7.97
2023-05-12T20:01:51.214Z,6.90
2023-05-12T20:04:17.521Z,7.50
2023-05-12T20:06:44.023Z,7.97
2023-05-12T20:09:10.526Z,7.85
2023-05-12T20:11:36.775Z,8.55
2023-05-12T20:14:03.028Z,7.88
2023-05-12T20:16:29.440Z,7.50
2023-05-12T20:18:55.831Z,8.93
2023-05-12T20:21:22.037Z,8.80
2023-05-12T20:23:48.260Z,8.93
2023-05-12T20:26:15.221Z,8.68
2023-05-12T20:28:41.441Z,8.10
2023-05-12T20:31:09.527Z,8.68
2023-05-12T20:33:35.846Z,8.43
2023-05-12T20:36:02.041Z,8.38
2023-05-12T20:38:28.489Z,9.32
2023-05-12T20:40:55.302Z,9.45
2023-05-12T20:43:21.524Z,9.20
2023-05-12T20:45:47.764Z,8.82
2023-05-12T20:48:14.197Z,9.15
2023-05-12T20:50:40.505Z,9.13
2023-05-12T20:53:06.810Z,10.07
2023-05-12T20:55:34.467Z,10.07
2023-05-12T20:58:00.786Z,9.35
2023-05-12T21:00:27.080Z,9.57
2023-05-12T21:02:53.696Z,8.85
2023-05-12T21:05:20.612Z,9.48
2023-05-12T21:07:47.030Z,8.93
2023-05-12T21:10:13.404Z,9.38
2023-05-12T21:12:39.709Z,9.93
2023-05-12T21:15:06.350Z,10.00
2023-05-12T21:17:32.580Z,10.60
2023-05-12T21:19:59.054Z,9.68
2023-05-12T21:22:25.343Z,9.65
2023-05-12T21:24:51.845Z,9.40
2023-05-12T21:27:18.085Z,9.85
2023-05-12T21:29:44.288Z,10.27
2023-05-12T21:32:11.123Z,10.55
2023-05-12T21:34:37.440Z,11.10
2023-05-12T21:37:03.768Z,11.95
2023-05-12T21:39:30.061Z,10.60
2023-05-12T21:41:56.270Z,11.10
2023-05-12T21:44:22.492Z,11.27
2023-05-12T21:46:48.791Z,11.40
2023-05-12T21:49:15.362Z,11.45
2023-05-12T21:51:41.939Z,9.55
2023-05-12T21:54:08.774Z,9.77
2023-05-12T21:56:35.011Z,10.80
2023-05-12T21:59:01.471Z,11.02
2023-05-12T22:01:28.658Z,9.80
2023-05-12T22:03:56.783Z,10.20
2023-05-12T22:06:23.042Z,11.50
2023-05-12T22:08:49.248Z,11.13
2023-05-12T22:11:16.228Z,10.90
2023-05-12T22:13:42.490Z,9.75
2023-05-12T22:16:08.828Z,9.77
2023-05-12T22:18:35.371Z,10.38
2023-05-12T22:21:01.729Z,10.02
2023-05-12T22:23:27.931Z,11.10
2023-05-12T22:25:54.214Z,10.88
2023-05-12T22:28:20.525Z,10.70
2023-05-12T22:30:46.770Z,10.73
2023-05-12T22:33:12.970Z,9.90
2023-05-12T22:35:39.211Z,10.52
2023-05-12T22:38:05.596Z,10.35
2023-05-12T22:40:32.757Z,10.10
2023-05-12T22:42:59.110Z,10.18
2023-05-12T22:45:25.834Z,9.90
2023-05-12T22:47:52.155Z,10.70
2023-05-12T22:50:18.733Z,10.52
2023-05-12T22:52:45.084Z,11.15
2023-05-12T22:55:11.328Z,10.43
2023-05-12T22:57:40.869Z,11.63
2023-05-12T23:00:07.413Z,11.10
2023-05-12T23:02:34.150Z,10.73
2023-05-12T23:05:00.567Z,10.75
2023-05-12T23:07:26.938Z,11.60
2023-05-12T23:09:53.157Z,10.93
2023-05-12T23:12:19.364Z,10.93
2023-05-12T23:14:45.642Z,11.95
2023-05-12T23:17:11.915Z,10.25
2023-05-12T23:19:39.905Z,11.32
2023-05-12T23:22:06.140Z,10.80
2023-05-12T23:24:32.504Z,11.88
2023-05-12T23:26:58.730Z,10.80
2023-05-12T23:29:24.948Z,11.57
2023-05-12T23:31:51.214Z,11.18
2023-05-12T23:34:17.604Z,10.38
2023-05-12T23:36:43.810Z,12.60
2023-05-12T23:39:10.153Z,9.65
2023-05-12T23:41:36.441Z,9.93
2023-05-12T23:44:03.030Z,10.80
2023-05-12T23:46:29.305Z,9.30
2023-05-12T23:48:56.372Z,10.50
2023-05-12T23:51:22.996Z,10.35
2023-05-12T23:53:49.296Z,10.35
2023-05-12T23:56:15.608Z,10.30
2023-05-12T23:58:41.834Z,11.40
